sensor_id;sensor_type;location;lat;lon;timestamp;pressure;altitude;pressure_sealevel;temperature;humidity
73422;BME280;61637;47.760;-122.022;2023-04-22T00:00:01;102946.256;;;10.2;unknown
73422;BME280;61637;47.760;-122.022;2023-04-22T00:02:01;102946.256;;;10.2;unknown
73422;BME280;61637;47.760;-122.022;2023-04-22T00:04:01;102946.256;;;10.2;unknown
73422;BME280;61637;47.760;-122.022;2023-04-22T00:06:01;102946.256;;;10.2;unknown
73422;BME280;61637;47.760;-122.022;2023-04-22T00:08:01;102946.256;;;10.2;unknown
73422;BME280;61637;47.760;-122.022;2023-04-22T00:10:01;102946.256;;;10.2;unknown
73422;BME280;61637;47.760;-122.022;2023-04-22T00:12:01;102946.256;;;10.2;unknown
73422;BME280;61637;47.760;-122.022;2023-04-22T00:14:01;102946.256;;;10.2;unknown
73422;BME280;61637;47.760;-122.022;2023-04-22T00:16:01;102946.256;;;10.3;unknown
73422;BME280;61637;47.760;-122.022;2023-04-22T00:18:01;102946.256;;;10.2;unknown
73422;BME280;61637;47.760;-122.022;2023-04-22T00:20:01;102946.256;;;10.2;unknown
73422;BME280;61637;47.760;-122.022;2023-04-22T00:22:01;102946.256;;;10.2;unknown
73422;BME280;61637;47.760;-122.022;2023-04-22T00:24:01;102946.256;;;10.2;unknown
73422;BME280;61637;47.760;-122.022;2023-04-22T00:26:01;102946.256;;;10.2;unknown
73422;BME280;61637;47.760;-122.022;2023-04-22T00:28:01;102946.256;;;10.2;unknown
73422;BME280;61637;47.760;-122.022;2023-04-22T00:30:01;102946.256;;;10.2;unknown
73422;BME280;61637;47.760;-122.022;2023-04-22T00:32:01;102946.256;;;10.2;unknown
73422;BME280;61637;47.760;-122.022;2023-04-22T00:34:01;102946.256;;;10.2;unknown
73422;BME280;61637;47.760;-122.022;2023-04-22T00:36:01;102946.256;;;10.2;unknown
73422;BME280;61637;47.760;-122.022;2023-04-22T00:38:01;102946.256;;;10.2;unknown
73422;BME280;61637;47.760;-122.022;2023-04-22T00:40:01;102946.256;;;10.3;unknown
73422;BME280;61637;47.760;-122.022;2023-04-22T00:42:01;102946.256;;;10.3;unknown
73422;BME280;61637;47.760;-122.022;2023-04-22T00:44:01;102946.256;;;10.3;unknown
73422;BME280;61637;47.760;-122.022;2023-04-22T00:46:01;102946.256;;;10.4;unknown
73422;BME280;61637;47.760;-122.022;2023-04-22T00:48:01;102946.256;;;10.4;unknown
73422;BME280;61637;47.760;-122.022;2023-04-22T00:50:01;102946.256;;;10.4;unknown
73422;BME280;61637;47.760;-122.022;2023-04-22T00:52:01;102946.256;;;10.6;unknown
73422;BME280;61637;47.760;-122.022;2023-04-22T00:54:01;102946.256;;;10.6;unknown
73422;BME280;61637;47.760;-122.022;2023-04-22T00:56:01;102946.256;;;10.7;unknown
73422;BME280;61637;47.760;-122.022;2023-04-22T00:58:01;102946.256;;;10.7;unknown
73422;BME280;61637;47.760;-122.022;2023-04-22T01:00:01;102946.256;;;10.7;unknown
73422;BME280;61637;47.760;-122.022;2023-04-22T01:02:01;102946.256;;;10.7;unknown
73422;BME280;61637;47.760;-122.022;2023-04-22T01:04:01;102946.256;;;10.7;unknown
73422;BME280;61637;47.760;-122.022;2023-04-22T01:06:01;102946.256;;;10.6;unknown
73422;BME280;61637;47.760;-122.022;2023-04-22T01:08:01;102946.256;;;10.6;unknown
73422;BME280;61637;47.760;-122.022;2023-04-22T01:10:01;102946.256;;;10.6;unknown
73422;BME280;61637;47.760;-122.022;2023-04-22T01:12:01;102946.256;;;10.7;unknown
73422;BME280;61637;47.760;-122.022;2023-04-22T01:14:01;102946.256;;;10.7;unknown
73422;BME280;61637;47.760;-122.022;2023-04-22T01:16:01;102946.256;;;10.7;unknown
73422;BME280;61637;47.760;-122.022;2023-04-22T01:18:01;102946.256;;;10.7;unknown
73422;BME280;61637;47.760;-122.022;2023-04-22T01:20:01;102946.256;;;10.7;unknown
73422;BME280;61637;47.760;-122.022;2023-04-22T01:22:01;102946.256;;;10.8;unknown
73422;BME280;61637;47.760;-122.022;2023-04-22T01:24:01;102946.256;;;10.7;unknown
73422;BME280;61637;47.760;-122.022;2023-04-22T01:26:01;102946.256;;;10.8;unknown
73422;BME280;61637;47.760;-122.022;2023-04-22T01:28:01;102946.256;;;10.8;unknown
73422;BME280;61637;47.760;-122.022;2023-04-22T01:30:01;102946.256;;;10.8;unknown
73422;BME280;61637;47.760;-122.022;2023-04-22T01:32:01;102946.256;;;10.8;unknown
73422;BME280;61637;47.760;-122.022;2023-04-22T01:34:01;102946.256;;;10.8;unknown
73422;BME280;61637;47.760;-122.022;2023-04-22T01:36:01;102946.256;;;10.7;unknown
73422;BME280;61637;47.760;-122.022;2023-04-22T01:38:01;102946.256;;;10.7;unknown
73422;BME280;61637;47.760;-122.022;2023-04-22T01:40:01;102946.256;;;10.7;unknown
73422;BME280;61637;47.760;-122.022;2023-04-22T01:42:01;102946.256;;;10.6;unknown
73422;BME280;61637;47.760;-122.022;2023-04-22T01:44:01;102946.256;;;10.6;unknown
73422;BME280;61637;47.760;-122.022;2023-04-22T01:46:01;102946.256;;;10.5;unknown
73422;BME280;61637;47.760;-122.022;2023-04-22T01:48:01;102946.256;;;10.4;unknown
73422;BME280;61637;47.760;-122.022;2023-04-22T01:50:01;102946.256;;;10.3;unknown
73422;BME280;61637;47.760;-122.022;2023-04-22T01:52:01;102946.256;;;10.3;unknown
73422;BME280;61637;47.760;-122.022;2023-04-22T01:54:01;102946.256;;;10.3;unknown
73422;BME280;61637;47.760;-122.022;2023-04-22T01:56:01;102946.256;;;10.2;unknown
73422;BME280;61637;47.760;-122.022;2023-04-22T01:58:01;102946.256;;;10.1;unknown
73422;BME280;61637;47.760;-122.022;2023-04-22T02:00:01;102946.256;;;10.1;unknown
73422;BME280;61637;47.760;-122.022;2023-04-22T02:02:01;102946.256;;;10.0;unknown
73422;BME280;61637;47.760;-122.022;2023-04-22T02:04:01;102946.256;;;9.9;unknown
73422;BME280;61637;47.760;-122.022;2023-04-22T02:06:01;102946.256;;;9.9;unknown
73422;BME280;61637;47.760;-122.022;2023-04-22T02:08:01;102946.256;;;9.9;unknown
73422;BME280;61637;47.760;-122.022;2023-04-22T02:10:01;102946.256;;;9.9;unknown
73422;BME280;61637;47.760;-122.022;2023-04-22T02:12:01;102946.256;;;9.8;unknown
73422;BME280;61637;47.760;-122.022;2023-04-22T02:14:01;102946.256;;;9.8;unknown
73422;BME280;61637;47.760;-122.022;2023-04-22T02:16:01;102946.256;;;9.7;unknown
73422;BME280;61637;47.760;-122.022;2023-04-22T02:18:01;102946.256;;;9.7;unknown
73422;BME280;61637;47.760;-122.022;2023-04-22T02:20:01;102946.256;;;9.7;unknown
73422;BME280;61637;47.760;-122.022;2023-04-22T02:22:01;102946.256;;;9.7;unknown
73422;BME280;61637;47.760;-122.022;2023-04-22T02:24:01;102946.256;;;9.7;unknown
73422;BME280;61637;47.760;-122.022;2023-04-22T02:26:01;102946.256;;;9.6;unknown
73422;BME280;61637;47.760;-122.022;2023-04-22T02:28:01;102946.256;;;9.6;unknown
73422;BME280;61637;47.760;-122.022;2023-04-22T02:30:01;102946.256;;;9.6;unknown
73422;BME280;61637;47.760;-122.022;2023-04-22T02:32:01;102946.256;;;9.6;unknown
73422;BME280;61637;47.760;-122.022;2023-04-22T02:34:01;102946.256;;;9.6;unknown
73422;BME280;61637;47.760;-122.022;2023-04-22T02:36:01;102946.256;;;9.5;unknown
73422;BME280;61637;47.760;-122.022;2023-04-22T02:38:01;102946.256;;;9.4;unknown
73422;BME280;61637;47.760;-122.022;2023-04-22T02:40:01;102946.256;;;9.4;unknown
73422;BME280;61637;47.760;-122.022;2023-04-22T02:42:01;102946.256;;;9.3;unknown
73422;BME280;61637;47.760;-122.022;2023-04-22T02:44:01;102946.256;;;9.3;unknown
73422;BME280;61637;47.760;-122.022;2023-04-22T02:46:01;102946.256;;;9.3;unknown
73422;BME280;61637;47.760;-122.022;2023-04-22T02:48:01;102946.256;;;9.3;unknown
73422;BME280;61637;47.760;-122.022;2023-04-22T02:50:01;102946.256;;;9.2;unknown
73422;BME280;61637;47.760;-122.022;2023-04-22T02:52:01;102946.256;;;9.2;unknown
73422;BME280;61637;47.760;-122.022;2023-04-22T02:54:01;102946.256;;;9.2;unknown
73422;BME280;61637;47.760;-122.022;2023-04-22T02:56:01;102946.256;;;9.1;unknown
73422;BME280;61637;47.760;-122.022;2023-04-22T02:58:01;102946.256;;;9.1;unknown
73422;BME280;61637;47.760;-122.022;2023-04-22T03:00:01;102946.256;;;9.1;unknown
73422;BME280;61637;47.760;-122.022;2023-04-22T03:02:01;102946.256;;;9.1;unknown
73422;BME280;61637;47.760;-122.022;2023-04-22T03:04:01;102946.256;;;9.0;unknown
73422;BME280;61637;47.760;-122.022;2023-04-22T03:06:01;102946.256;;;8.9;unknown
73422;BME280;61637;47.760;-122.022;2023-04-22T03:08:01;102946.256;;;8.9;unknown
73422;BME280;61637;47.760;-122.022;2023-04-22T03:10:01;102946.256;;;8.9;unknown
73422;BME280;61637;47.760;-122.022;2023-04-22T03:12:01;102946.256;;;8.8;unknown
73422;BME280;61637;47.760;-122.022;2023-04-22T03:14:01;102946.256;;;8.8;unknown
73422;BME280;61637;47.760;-122.022;2023-04-22T03:16:01;102946.256;;;8.8;unknown
73422;BME280;61637;47.760;-122.022;2023-04-22T03:18:01;102946.256;;;8.8;unknown
73422;BME280;61637;47.760;-122.022;2023-04-22T03:20:01;102946.256;;;8.7;unknown
73422;BME280;61637;47.760;-122.022;2023-04-22T03:22:01;102946.256;;;8.7;unknown
73422;BME280;61637;47.760;-122.022;2023-04-22T03:24:01;102946.256;;;8.7;unknown
73422;BME280;61637;47.760;-122.022;2023-04-22T03:26:01;102946.256;;;8.6;unknown
73422;BME280;61637;47.760;-122.022;2023-04-22T03:28:01;102946.256;;;8.6;unknown
73422;BME280;61637;47.760;-122.022;2023-04-22T03:30:01;102946.256;;;8.6;unknown
73422;BME280;61637;47.760;-122.022;2023-04-22T03:32:01;102946.256;;;8.6;unknown
73422;BME280;61637;47.760;-122.022;2023-04-22T03:34:01;102946.256;;;8.6;unknown
73422;BME280;61637;47.760;-122.022;2023-04-22T03:36:01;102946.256;;;8.5;unknown
73422;BME280;61637;47.760;-122.022;2023-04-22T03:38:01;102946.256;;;8.5;unknown
73422;BME280;61637;47.760;-122.022;2023-04-22T03:40:01;102946.256;;;8.5;unknown
73422;BME280;61637;47.760;-122.022;2023-04-22T03:42:01;102946.256;;;8.4;unknown
73422;BME280;61637;47.760;-122.022;2023-04-22T03:44:01;102946.256;;;8.4;unknown
73422;BME280;61637;47.760;-122.022;2023-04-22T03:46:01;102946.256;;;8.4;unavailable
73422;BME280;61637;47.760;-122.022;2023-04-22T03:48:01;102946.256;;;8.4;unknown
73422;BME280;61637;47.760;-122.022;2023-04-22T03:50:01;102946.256;;;8.4;unknown
73422;BME280;61637;47.760;-122.022;2023-04-22T03:52:01;102946.256;;;8.4;unknown
73422;BME280;61637;47.760;-122.022;2023-04-22T03:54:01;102946.256;;;8.4;unknown
73422;BME280;61637;47.760;-122.022;2023-04-22T03:56:01;102946.256;;;8.3;unknown
73422;BME280;61637;47.760;-122.022;2023-04-22T03:58:01;102946.256;;;8.3;unknown
73422;BME280;61637;47.760;-122.022;2023-04-22T04:00:01;102946.256;;;8.3;unknown
73422;BME280;61637;47.760;-122.022;2023-04-22T04:02:01;102946.256;;;8.3;unknown
73422;BME280;61637;47.760;-122.022;2023-04-22T04:04:01;102946.256;;;8.3;unknown
73422;BME280;61637;47.760;-122.022;2023-04-22T04:06:01;102946.256;;;8.3;unknown
73422;BME280;61637;47.760;-122.022;2023-04-22T04:08:01;102946.256;;;8.3;unknown
73422;BME280;61637;47.760;-122.022;2023-04-22T04:10:01;102946.256;;;8.3;unknown
73422;BME280;61637;47.760;-122.022;2023-04-22T04:12:01;102946.256;;;8.3;unknown
73422;BME280;61637;47.760;-122.022;2023-04-22T04:14:01;102946.256;;;8.2;unknown
73422;BME280;61637;47.760;-122.022;2023-04-22T04:16:01;102946.256;;;8.2;unknown
73422;BME280;61637;47.760;-122.022;2023-04-22T04:18:01;102946.256;;;8.2;unknown
73422;BME280;61637;47.760;-122.022;2023-04-22T04:20:01;102946.256;;;8.2;unknown
73422;BME280;61637;47.760;-122.022;2023-04-22T04:22:01;102946.256;;;8.2;unknown
73422;BME280;61637;47.760;-122.022;2023-04-22T04:24:01;102946.256;;;8.2;unknown
73422;BME280;61637;47.760;-122.022;2023-04-22T04:26:01;102946.256;;;8.2;unknown
73422;BME280;61637;47.760;-122.022;2023-04-22T04:28:01;102946.256;;;8.2;unknown
73422;BME280;61637;47.760;-122.022;2023-04-22T04:30:01;102946.256;;;8.2;unknown
73422;BME280;61637;47.760;-122.022;2023-04-22T04:32:01;102946.256;;;8.2;unknown
73422;BME280;61637;47.760;-122.022;2023-04-22T04:34:01;102946.256;;;8.2;unknown
73422;BME280;61637;47.760;-122.022;2023-04-22T04:36:01;102946.256;;;8.2;unknown
73422;BME280;61637;47.760;-122.022;2023-04-22T04:38:01;102946.256;;;8.2;unknown
73422;BME280;61637;47.760;-122.022;2023-04-22T04:40:01;102946.256;;;8.2;unknown
73422;BME280;61637;47.760;-122.022;2023-04-22T04:42:01;102946.256;;;8.2;unknown
73422;BME280;61637;47.760;-122.022;2023-04-22T04:44:01;102946.256;;;8.2;unknown
73422;BME280;61637;47.760;-122.022;2023-04-22T04:46:01;102946.256;;;8.2;unknown
73422;BME280;61637;47.760;-122.022;2023-04-22T04:48:01;102946.256;;;8.2;unknown
73422;BME280;61637;47.760;-122.022;2023-04-22T04:50:01;102946.256;;;8.1;unknown
73422;BME280;61637;47.760;-122.022;2023-04-22T04:52:01;102946.256;;;8.1;unknown
73422;BME280;61637;47.760;-122.022;2023-04-22T04:54:01;102946.256;;;8.1;unknown
73422;BME280;61637;47.760;-122.022;2023-04-22T04:56:01;102946.256;;;8.1;unknown
73422;BME280;61637;47.760;-122.022;2023-04-22T04:58:01;102946.256;;;8.1;unknown
73422;BME280;61637;47.760;-122.022;2023-04-22T05:00:01;102946.256;;;8.1;unknown
73422;BME280;61637;47.760;-122.022;2023-04-22T05:02:01;102946.256;;;8.1;unknown
73422;BME280;61637;47.760;-122.022;2023-04-22T05:04:01;102946.256;;;8.1;unknown
73422;BME280;61637;47.760;-122.022;2023-04-22T05:06:01;102946.256;;;8.1;unknown
73422;BME280;61637;47.760;-122.022;2023-04-22T05:08:01;102946.256;;;8.0;unknown
73422;BME280;61637;47.760;-122.022;2023-04-22T05:10:01;102946.256;;;8.0;unknown
73422;BME280;61637;47.760;-122.022;2023-04-22T05:12:01;102946.256;;;8.0;unknown
73422;BME280;61637;47.760;-122.022;2023-04-22T05:14:01;102946.256;;;7.9;unknown
73422;BME280;61637;47.760;-122.022;2023-04-22T05:16:01;102946.256;;;7.9;unknown
73422;BME280;61637;47.760;-122.022;2023-04-22T05:18:01;102946.256;;;7.9;unknown
73422;BME280;61637;47.760;-122.022;2023-04-22T05:20:01;102946.256;;;7.9;unknown
73422;BME280;61637;47.760;-122.022;2023-04-22T05:22:01;102946.256;;;7.9;unknown
73422;BME280;61637;47.760;-122.022;2023-04-22T05:24:01;102946.256;;;7.9;unknown
73422;BME280;61637;47.760;-122.022;2023-04-22T05:26:01;102946.256;;;7.9;unknown
73422;BME280;61637;47.760;-122.022;2023-04-22T05:28:01;102946.256;;;7.9;unknown
73422;BME280;61637;47.760;-122.022;2023-04-22T05:30:01;102946.256;;;7.9;unknown
73422;BME280;61637;47.760;-122.022;2023-04-22T05:32:01;102946.256;;;7.9;unknown
73422;BME280;61637;47.760;-122.022;2023-04-22T05:34:01;102946.256;;;7.9;unknown
73422;BME280;61637;47.760;-122.022;2023-04-22T05:36:01;102946.256;;;7.9;unknown
73422;BME280;61637;47.760;-122.022;2023-04-22T05:38:01;102946.256;;;7.9;unknown
73422;BME280;61637;47.760;-122.022;2023-04-22T05:40:01;102946.256;;;7.9;unknown
73422;BME280;61637;47.760;-122.022;2023-04-22T05:42:01;102946.256;;;7.9;unknown
73422;BME280;61637;47.760;-122.022;2023-04-22T05:44:01;102946.256;;;7.9;unknown
73422;BME280;61637;47.760;-122.022;2023-04-22T05:46:01;102946.256;;;7.9;unknown
73422;BME280;61637;47.760;-122.022;2023-04-22T05:48:01;102946.256;;;7.9;unknown
73422;BME280;61637;47.760;-122.022;2023-04-22T05:50:01;102946.256;;;7.9;unknown
73422;BME280;61637;47.760;-122.022;2023-04-22T05:52:01;102946.256;;;7.9;unknown
73422;BME280;61637;47.760;-122.022;2023-04-22T05:54:01;102946.256;;;7.9;unknown
73422;BME280;61637;47.760;-122.022;2023-04-22T05:56:01;102946.256;;;7.9;unknown
73422;BME280;61637;47.760;-122.022;2023-04-22T05:58:01;102946.256;;;7.9;unknown
73422;BME280;61637;47.760;-122.022;2023-04-22T06:00:01;102946.256;;;7.9;unknown
73422;BME280;61637;47.760;-122.022;2023-04-22T06:02:01;102946.256;;;7.9;unknown
73422;BME280;61637;47.760;-122.022;2023-04-22T06:04:01;102946.256;;;7.8;unknown
73422;BME280;61637;47.760;-122.022;2023-04-22T06:06:01;102946.256;;;7.8;unknown
73422;BME280;61637;47.760;-122.022;2023-04-22T06:08:01;102946.256;;;7.8;unknown
73422;BME280;61637;47.760;-122.022;2023-04-22T06:10:01;102946.256;;;7.8;unknown
73422;BME280;61637;47.760;-122.022;2023-04-22T06:12:01;102946.256;;;7.8;unknown
73422;BME280;61637;47.760;-122.022;2023-04-22T06:14:01;102946.256;;;7.8;unknown
73422;BME280;61637;47.760;-122.022;2023-04-22T06:16:01;102946.256;;;7.8;unknown
73422;BME280;61637;47.760;-122.022;2023-04-22T06:18:01;102946.256;;;7.8;unknown
73422;BME280;61637;47.760;-122.022;2023-04-22T06:20:01;102946.256;;;7.8;unknown
73422;BME280;61637;47.760;-122.022;2023-04-22T06:22:01;102946.256;;;7.7;unknown
73422;BME280;61637;47.760;-122.022;2023-04-22T06:24:01;102946.256;;;7.7;unknown
73422;BME280;61637;47.760;-122.022;2023-04-22T06:26:01;102946.256;;;7.7;unknown
73422;BME280;61637;47.760;-122.022;2023-04-22T06:28:01;102946.256;;;7.7;unknown
73422;BME280;61637;47.760;-122.022;2023-04-22T06:30:01;102946.256;;;7.7;unknown
73422;BME280;61637;47.760;-122.022;2023-04-22T06:32:01;102946.256;;;7.7;unknown
73422;BME280;61637;47.760;-122.022;2023-04-22T06:34:01;102946.256;;;7.6;unknown
73422;BME280;61637;47.760;-122.022;2023-04-22T06:36:01;102946.256;;;7.6;unknown
73422;BME280;61637;47.760;-122.022;2023-04-22T06:38:01;102946.256;;;7.6;unknown
73422;BME280;61637;47.760;-122.022;2023-04-22T06:40:01;102946.256;;;7.6;unknown
73422;BME280;61637;47.760;-122.022;2023-04-22T06:42:01;102946.256;;;7.6;unknown
73422;BME280;61637;47.760;-122.022;2023-04-22T06:44:01;102946.256;;;7.6;unknown
73422;BME280;61637;47.760;-122.022;2023-04-22T06:46:01;102946.256;;;7.6;unknown
73422;BME280;61637;47.760;-122.022;2023-04-22T06:48:01;102946.256;;;7.6;unknown
73422;BME280;61637;47.760;-122.022;2023-04-22T06:50:01;102946.256;;;7.6;unknown
73422;BME280;61637;47.760;-122.022;2023-04-22T06:52:01;102946.256;;;7.6;unknown
73422;BME280;61637;47.760;-122.022;2023-04-22T06:54:01;102946.256;;;7.5;unknown
73422;BME280;61637;47.760;-122.022;2023-04-22T06:56:01;102946.256;;;7.5;unknown
73422;BME280;61637;47.760;-122.022;2023-04-22T06:58:01;102946.256;;;7.5;unknown
73422;BME280;61637;47.760;-122.022;2023-04-22T07:00:01;102946.256;;;7.4;unknown
73422;BME280;61637;47.760;-122.022;2023-04-22T07:02:01;102946.256;;;7.4;unknown
73422;BME280;61637;47.760;-122.022;2023-04-22T07:04:01;102946.256;;;7.4;unknown
73422;BME280;61637;47.760;-122.022;2023-04-22T07:06:01;102946.256;;;7.4;unknown
73422;BME280;61637;47.760;-122.022;2023-04-22T07:08:01;102946.256;;;7.4;unknown
73422;BME280;61637;47.760;-122.022;2023-04-22T07:10:01;102946.256;;;7.4;unknown
73422;BME280;61637;47.760;-122.022;2023-04-22T07:12:01;102946.256;;;7.4;unknown
73422;BME280;61637;47.760;-122.022;2023-04-22T07:14:01;102946.256;;;7.4;unknown
73422;BME280;61637;47.760;-122.022;2023-04-22T07:16:01;102946.256;;;7.3;unknown
73422;BME280;61637;47.760;-122.022;2023-04-22T07:18:01;102946.256;;;7.3;unknown
73422;BME280;61637;47.760;-122.022;2023-04-22T07:20:01;102946.256;;;7.3;unknown
73422;BME280;61637;47.760;-122.022;2023-04-22T07:22:01;102946.256;;;7.3;unknown
73422;BME280;61637;47.760;-122.022;2023-04-22T07:24:01;102946.256;;;7.3;unknown
73422;BME280;61637;47.760;-122.022;2023-04-22T07:26:01;102946.256;;;7.3;unknown
73422;BME280;61637;47.760;-122.022;2023-04-22T07:28:01;102946.256;;;7.3;unknown
73422;BME280;61637;47.760;-122.022;2023-04-22T07:30:01;102946.256;;;7.3;unknown
73422;BME280;61637;47.760;-122.022;2023-04-22T07:32:01;102946.256;;;7.3;unknown
73422;BME280;61637;47.760;-122.022;2023-04-22T07:34:01;102946.256;;;7.3;unknown
73422;BME280;61637;47.760;-122.022;2023-04-22T07:36:01;102946.256;;;7.3;unknown
73422;BME280;61637;47.760;-122.022;2023-04-22T07:38:01;102946.256;;;7.3;unknown
73422;BME280;61637;47.760;-122.022;2023-04-22T07:40:01;102946.256;;;7.3;unknown
73422;BME280;61637;47.760;-122.022;2023-04-22T07:42:01;102946.256;;;7.3;unknown
73422;BME280;61637;47.760;-122.022;2023-04-22T07:44:01;102946.256;;;7.3;unknown
73422;BME280;61637;47.760;-122.022;2023-04-22T07:46:01;102946.256;;;7.3;unknown
73422;BME280;61637;47.760;-122.022;2023-04-22T07:48:01;102946.256;;;7.2;unknown
73422;BME280;61637;47.760;-122.022;2023-04-22T07:50:01;102946.256;;;7.3;unknown
73422;BME280;61637;47.760;-122.022;2023-04-22T07:52:01;102946.256;;;7.2;unknown
73422;BME280;61637;47.760;-122.022;2023-04-22T07:54:01;102607.617;;;7.2;unknown
73422;BME280;61637;47.760;-122.022;2023-04-22T07:56:01;102946.256;;;7.2;unknown
73422;BME280;61637;47.760;-122.022;2023-04-22T07:58:01;102946.256;;;7.2;unknown
73422;BME280;61637;47.760;-122.022;2023-04-22T08:00:01;102946.256;;;7.2;unknown
73422;BME280;61637;47.760;-122.022;2023-04-22T08:02:01;102946.256;;;7.2;unknown
73422;BME280;61637;47.760;-122.022;2023-04-22T08:04:01;102946.256;;;7.1;unknown
73422;BME280;61637;47.760;-122.022;2023-04-22T08:06:01;102946.256;;;7.1;unknown
73422;BME280;61637;47.760;-122.022;2023-04-22T08:08:01;102946.256;;;7.1;unknown
73422;BME280;61637;47.760;-122.022;2023-04-22T08:10:01;102607.617;;;7.1;unknown
73422;BME280;61637;47.760;-122.022;2023-04-22T08:12:01;102946.256;;;7.0;unknown
73422;BME280;61637;47.760;-122.022;2023-04-22T08:14:01;102946.256;;;7.0;unknown
73422;BME280;61637;47.760;-122.022;2023-04-22T08:16:01;102607.617;;;6.9;unknown
73422;BME280;61637;47.760;-122.022;2023-04-22T08:18:01;102607.617;;;6.9;unknown
73422;BME280;61637;47.760;-122.022;2023-04-22T08:20:01;102607.617;;;6.9;unknown
73422;BME280;61637;47.760;-122.022;2023-04-22T08:22:01;102607.617;;;6.9;unknown
73422;BME280;61637;47.760;-122.022;2023-04-22T08:24:01;102607.617;;;6.9;unknown
73422;BME280;61637;47.760;-122.022;2023-04-22T08:26:01;102607.617;;;6.9;unknown
73422;BME280;61637;47.760;-122.022;2023-04-22T08:28:01;102607.617;;;6.8;unknown
73422;BME280;61637;47.760;-122.022;2023-04-22T08:30:01;102607.617;;;6.8;unknown
73422;BME280;61637;47.760;-122.022;2023-04-22T08:32:01;102607.617;;;6.8;unknown
73422;BME280;61637;47.760;-122.022;2023-04-22T08:34:01;102607.617;;;6.8;unknown
73422;BME280;61637;47.760;-122.022;2023-04-22T08:36:01;102607.617;;;6.8;unknown
73422;BME280;61637;47.760;-122.022;2023-04-22T08:38:01;102607.617;;;6.8;unknown
73422;BME280;61637;47.760;-122.022;2023-04-22T08:40:01;102607.617;;;6.8;unknown
73422;BME280;61637;47.760;-122.022;2023-04-22T08:42:01;102607.617;;;6.8;unknown
73422;BME280;61637;47.760;-122.022;2023-04-22T08:44:01;102607.617;;;6.8;unknown
73422;BME280;61637;47.760;-122.022;2023-04-22T08:46:01;102607.617;;;6.7;unknown
73422;BME280;61637;47.760;-122.022;2023-04-22T08:48:01;102607.617;;;6.7;unknown
73422;BME280;61637;47.760;-122.022;2023-04-22T08:50:01;102607.617;;;6.7;unknown
73422;BME280;61637;47.760;-122.022;2023-04-22T08:52:01;102607.617;;;6.7;unknown
73422;BME280;61637;47.760;-122.022;2023-04-22T08:54:01;102607.617;;;6.7;unknown
73422;BME280;61637;47.760;-122.022;2023-04-22T08:56:01;102607.617;;;6.6;unknown
73422;BME280;61637;47.760;-122.022;2023-04-22T08:58:01;102607.617;;;6.6;unknown
73422;BME280;61637;47.760;-122.022;2023-04-22T09:00:01;102607.617;;;6.6;unknown
73422;BME280;61637;47.760;-122.022;2023-04-22T09:02:01;102607.617;;;6.6;unknown
73422;BME280;61637;47.760;-122.022;2023-04-22T09:04:01;102607.617;;;6.6;unknown
73422;BME280;61637;47.760;-122.022;2023-04-22T09:06:01;102607.617;;;6.5;unknown
73422;BME280;61637;47.760;-122.022;2023-04-22T09:08:01;102607.617;;;6.4;unknown
73422;BME280;61637;47.760;-122.022;2023-04-22T09:10:01;102607.617;;;6.4;unknown
73422;BME280;61637;47.760;-122.022;2023-04-22T09:12:01;102607.617;;;6.4;unknown
73422;BME280;61637;47.760;-122.022;2023-04-22T09:14:01;102607.617;;;6.4;unknown
73422;BME280;61637;47.760;-122.022;2023-04-22T09:16:01;102607.617;;;6.4;unknown
73422;BME280;61637;47.760;-122.022;2023-04-22T09:18:01;102607.617;;;6.4;unknown
73422;BME280;61637;47.760;-122.022;2023-04-22T09:20:01;102607.617;;;6.4;unknown
73422;BME280;61637;47.760;-122.022;2023-04-22T09:22:01;102607.617;;;6.3;unknown
73422;BME280;61637;47.760;-122.022;2023-04-22T09:24:01;102607.617;;;6.4;unknown
73422;BME280;61637;47.760;-122.022;2023-04-22T09:26:01;102607.617;;;6.4;unknown
73422;BME280;61637;47.760;-122.022;2023-04-22T09:28:01;102607.617;;;6.4;unknown
73422;BME280;61637;47.760;-122.022;2023-04-22T09:30:03;102607.617;;;6.3;unknown
73422;BME280;61637;47.760;-122.022;2023-04-22T09:32:05;102607.617;;;6.3;unknown
73422;BME280;61637;47.760;-122.022;2023-04-22T09:34:01;102607.617;;;6.3;unknown
73422;BME280;61637;47.760;-122.022;2023-04-22T09:36:01;102607.617;;;6.3;unknown
73422;BME280;61637;47.760;-122.022;2023-04-22T09:38:01;102607.617;;;6.3;unknown
73422;BME280;61637;47.760;-122.022;2023-04-22T09:40:01;102607.617;;;6.3;unknown
73422;BME280;61637;47.760;-122.022;2023-04-22T09:42:01;102607.617;;;6.3;unknown
73422;BME280;61637;47.760;-122.022;2023-04-22T09:44:01;102607.617;;;6.3;unknown
73422;BME280;61637;47.760;-122.022;2023-04-22T09:46:01;102607.617;;;6.3;unknown
73422;BME280;61637;47.760;-122.022;2023-04-22T09:48:01;102607.617;;;6.4;unknown
73422;BME280;61637;47.760;-122.022;2023-04-22T09:50:02;102607.617;;;6.3;unknown
73422;BME280;61637;47.760;-122.022;2023-04-22T09:52:01;102607.617;;;6.3;unknown